La Suprema — IBIL — position and weather

sailwx.info

Track history (hours):
 
Tides and Currents Weather Stations Pressure Air Temp Water Temp Dewpoint Dewpoint Depression Visibility Wind Speed Wind Dir Waves Ship Positions

La Suprema

Last reported at 2016-Feb-13 18:33 UTC. Time now 2016-Feb-13 19:24 UTC.
Position N 38°08' E 013°22'.

Length 211 m; draft 7.3 m.

Type: Passenger vessel. MMSI: 247083700.

Date/timePositionNaut miles runAvg speedWind from/ knotsBaromVisibWave heightAir tempDewpointWater temp
2016-Feb-13 18:33N 38°08' E 013°22'0 0.1
2016-Feb-13 17:34N 38°08' E 013°22'1414.4
2016-Feb-13 16:33N 38°22' E 013°18'30022.8
2016-Feb-13 03:26N 42°37' E 009°51'4322.9
2016-Feb-13 01:34N 43°17' E 009°30'2322.9
2016-Feb-13 00:33N 43°39' E 009°19'2323.2
2016-Feb-12 23:34N 44°01' E 009°08'2423.5
2016-Feb-12 22:33N 44°23' E 008°57'2 0.3
2016-Feb-12 17:15N 44°24' E 008°55'1217.1
2016-Feb-12 16:32N 44°14' E 009°04'2222.9
2016-Feb-12 15:34N 43°54' E 009°20'2322.9
2016-Feb-12 14:33N 43°34' E 009°36'2322.8
2016-Feb-12 13:34N 43°15' E 009°52'32223.0
2016-Feb-11 23:34N 38°30' E 013°10'2323.1
2016-Feb-11 22:34N 38°11' E 013°25'4 3.8
2016-Feb-11 21:31N 38°08' E 013°22'0 0.0
2016-Feb-11 20:31N 38°08' E 013°22'0 0.0
2016-Feb-11 19:33N 38°08' E 013°22'0 0.0
2016-Feb-11 18:33N 38°08' E 013°22'0 0.0
2016-Feb-11 17:33N 38°08' E 013°22'9 8.8
2016-Feb-11 16:34N 38°17' E 013°22'2523.9
2016-Feb-11 15:31N 38°37' E 013°04'28223.2
2016-Feb-11 03:22N 42°38' E 009°51'2723.4
2016-Feb-11 02:12N 43°03' E 009°38'1523.3
2016-Feb-11 01:34N 43°17' E 009°31'2222.4
2016-Feb-11 00:34N 43°38' E 009°19'2222.2
2016-Feb-10 23:34N 43°59' E 009°09'2322.7
2016-Feb-10 22:33N 44°20' E 008°58'4 0.7
2016-Feb-10 17:33N 44°23' E 008°57'2322.8
2016-Feb-10 16:34N 44°02' E 009°08'2423.9
2016-Feb-10 15:34N 43°39' E 009°18'2424.0
2016-Feb-10 14:33N 43°16' E 009°22'31922.1
2016-Feb-10 00:09N 38°43' E 013°01'1524.2
2016-Feb-09 23:33N 38°31' E 013°10'2424.4
2016-Feb-09 22:33N 38°09' E 013°25'3 3.0
2016-Feb-09 21:31N 38°08' E 013°22'0 0.0
2016-Feb-09 20:33N 38°08' E 013°22'0 0.0
2016-Feb-09 19:33N 38°08' E 013°22'0 0.0
2016-Feb-09 18:32N 38°08' E 013°22'0 0.0
2016-Feb-09 17:33N 38°08' E 013°22'1111.5
2016-Feb-09 16:34N 38°19' E 013°20'30222.7
2016-Feb-09 03:13N 42°36' E 009°51'3722.4
2016-Feb-09 01:33N 43°11' E 009°34'2221.6
2016-Feb-09 00:33N 43°32' E 009°24'2221.6
2016-Feb-08 23:33N 43°52' E 009°13'2221.8
2016-Feb-08 22:34N 44°12' E 009°02'13 1.1
2016-Feb-08 10:18N 44°25' E 008°55'0 0.0
2016-Feb-08 08:32N 44°25' E 008°55'0 0.0
2016-Feb-08 07:20N 44°25' E 008°55'0 0.0
2016-Feb-08 06:25N 44°25' E 008°55'0 0.0
2016-Feb-08 05:28N 44°25' E 008°55'0 0.0
2016-Feb-08 04:33N 44°25' E 008°55'0 0.0
2016-Feb-08 03:30N 44°25' E 008°55'0 0.0
2016-Feb-08 02:29N 44°25' E 008°55'0 0.0
2016-Feb-08 01:29N 44°25' E 008°55'0 0.0
2016-Feb-08 00:32N 44°25' E 008°55'0 0.0
2016-Feb-07 23:31N 44°25' E 008°55'0 0.0
2016-Feb-07 22:31N 44°25' E 008°55'0 0.0
2016-Feb-07 21:33N 44°25' E 008°55'0 0.0
2016-Feb-07 20:30N 44°25' E 008°55'0 0.0
2016-Feb-07 19:29N 44°25' E 008°55'0 0.0
2016-Feb-07 18:29N 44°25' E 008°55'3 2.9
2016-Feb-07 17:33N 44°23' E 008°57'1716.6
2016-Feb-07 16:34N 44°08' E 009°09'2323.1
2016-Feb-07 15:34N 43°48' E 009°25'2323.2
2016-Feb-07 14:34N 43°28' E 009°41'33323.8
2016-Feb-07 00:33N 38°34' E 013°07'2424.7
2016-Feb-06 23:34N 38°13' E 013°24'5 5.3
2016-Feb-06 22:32N 38°08' E 013°22'0 0.0
2016-Feb-06 21:32N 38°08' E 013°22'0 0.0
2016-Feb-06 20:31N 38°08' E 013°22'0 0.0
2016-Feb-06 19:31N 38°08' E 013°22'0 0.0
2016-Feb-06 18:33N 38°08' E 013°22'0 0.0
2016-Feb-06 17:33N 38°08' E 013°22'1010.1
2016-Feb-06 16:33N 38°18' E 013°21'2522.8
2016-Feb-06 15:29N 38°39' E 013°04'31722.7
2016-Feb-06 01:30N 43°12' E 009°32'2122.8
2016-Feb-06 00:34N 43°32' E 009°22'2322.9
2016-Feb-05 23:34N 43°54' E 009°11'2322.8
2016-Feb-05 22:34N 44°16' E 009°01'10 9.3
2016-Feb-05 21:28N 44°25' E 008°55'0 0.0
2016-Feb-05 20:28N 44°25' E 008°55'0 0.0
2016-Feb-05 19:24N 44°25' E 008°55'0 0.0
2016-Feb-05 18:24N 44°25' E 008°55'0 0.1
2016-Feb-05 17:33N 44°25' E 008°55'1717.4
2016-Feb-05 16:33N 44°10' E 009°08'2423.7
2016-Feb-05 15:34N 43°49' E 009°24'2323.4
2016-Feb-05 14:33N 43°29' E 009°40'32822.7
2016-Feb-05 00:06N 38°39' E 013°03'1221.4
2016-Feb-04 23:33N 38°29' E 013°11'2121.2
2016-Feb-04 22:33N 38°11' E 013°25'4 4.0
2016-Feb-04 21:33N 38°08' E 013°22'0 0.0
2016-Feb-04 20:33N 38°08' E 013°22'0 0.0
2016-Feb-04 19:32N 38°08' E 013°22'0 0.0
2016-Feb-04 18:32N 38°08' E 013°22'0 0.0
2016-Feb-04 17:31N 38°08' E 013°22'9 9.7
2016-Feb-04 16:34N 38°17' E 013°21'34122.7
2016-Feb-04 01:33N 43°11' E 009°33'2322.9
2016-Feb-04 00:34N 43°32' E 009°22'2323.0
2016-Feb-03 23:34N 43°54' E 009°11'2323.0
2016-Feb-03 22:34N 44°15' E 009°00'10 9.8
2016-Feb-03 21:33N 44°25' E 008°55'0 0.0
2016-Feb-03 20:34N 44°25' E 008°55'0 0.0
2016-Feb-03 19:34N 44°25' E 008°55'0 0.0
2016-Feb-03 18:34N 44°25' E 008°55'  
Track history (hours):
 
Tides and Currents Weather Stations Pressure Air Temp Water Temp Dewpoint Dewpoint Depression Visibility Wind Speed Wind Dir Waves Ship Positions

La Suprema

Last reported at 2016-Feb-13 18:33 UTC. Time now 2016-Feb-13 19:24 UTC.
Position N 38°08' E 013°22'.

Length 211 m; draft 7.3 m.

Type: Passenger vessel. MMSI: 247083700.

Date/timePositionNaut miles runAvg speedWind from/ knotsBaromVisibWave heightAir tempDewpointWater temp
2016-Feb-13 18:33N 38°08' E 013°22'0 0.1
2016-Feb-13 17:34N 38°08' E 013°22'1414.4
2016-Feb-13 16:33N 38°22' E 013°18'30022.8
2016-Feb-13 03:26N 42°37' E 009°51'4322.9
2016-Feb-13 01:34N 43°17' E 009°30'2322.9
2016-Feb-13 00:33N 43°39' E 009°19'2323.2
2016-Feb-12 23:34N 44°01' E 009°08'2423.5
2016-Feb-12 22:33N 44°23' E 008°57'2 0.3
2016-Feb-12 17:15N 44°24' E 008°55'1217.1
2016-Feb-12 16:32N 44°14' E 009°04'2222.9
2016-Feb-12 15:34N 43°54' E 009°20'2322.9
2016-Feb-12 14:33N 43°34' E 009°36'2322.8
2016-Feb-12 13:34N 43°15' E 009°52'32223.0
2016-Feb-11 23:34N 38°30' E 013°10'2323.1
2016-Feb-11 22:34N 38°11' E 013°25'4 3.8
2016-Feb-11 21:31N 38°08' E 013°22'0 0.0
2016-Feb-11 20:31N 38°08' E 013°22'0 0.0
2016-Feb-11 19:33N 38°08' E 013°22'0 0.0
2016-Feb-11 18:33N 38°08' E 013°22'0 0.0
2016-Feb-11 17:33N 38°08' E 013°22'9 8.8
2016-Feb-11 16:34N 38°17' E 013°22'2523.9
2016-Feb-11 15:31N 38°37' E 013°04'28223.2
2016-Feb-11 03:22N 42°38' E 009°51'2723.4
2016-Feb-11 02:12N 43°03' E 009°38'1523.3
2016-Feb-11 01:34N 43°17' E 009°31'2222.4
2016-Feb-11 00:34N 43°38' E 009°19'2222.2
2016-Feb-10 23:34N 43°59' E 009°09'2322.7
2016-Feb-10 22:33N 44°20' E 008°58'4 0.7
2016-Feb-10 17:33N 44°23' E 008°57'2322.8
2016-Feb-10 16:34N 44°02' E 009°08'2423.9
2016-Feb-10 15:34N 43°39' E 009°18'2424.0
2016-Feb-10 14:33N 43°16' E 009°22'31922.1
2016-Feb-10 00:09N 38°43' E 013°01'1524.2
2016-Feb-09 23:33N 38°31' E 013°10'2424.4
2016-Feb-09 22:33N 38°09' E 013°25'3 3.0
2016-Feb-09 21:31N 38°08' E 013°22'0 0.0
2016-Feb-09 20:33N 38°08' E 013°22'0 0.0
2016-Feb-09 19:33N 38°08' E 013°22'0 0.0
2016-Feb-09 18:32N 38°08' E 013°22'0 0.0
2016-Feb-09 17:33N 38°08' E 013°22'1111.5
2016-Feb-09 16:34N 38°19' E 013°20'30222.7
2016-Feb-09 03:13N 42°36' E 009°51'3722.4
2016-Feb-09 01:33N 43°11' E 009°34'2221.6
2016-Feb-09 00:33N 43°32' E 009°24'2221.6
2016-Feb-08 23:33N 43°52' E 009°13'2221.8
2016-Feb-08 22:34N 44°12' E 009°02'13 1.1
2016-Feb-08 10:18N 44°25' E 008°55'0 0.0
2016-Feb-08 08:32N 44°25' E 008°55'0 0.0
2016-Feb-08 07:20N 44°25' E 008°55'0 0.0
2016-Feb-08 06:25N 44°25' E 008°55'0 0.0
2016-Feb-08 05:28N 44°25' E 008°55'0 0.0
2016-Feb-08 04:33N 44°25' E 008°55'0 0.0
2016-Feb-08 03:30N 44°25' E 008°55'0 0.0
2016-Feb-08 02:29N 44°25' E 008°55'0 0.0
2016-Feb-08 01:29N 44°25' E 008°55'0 0.0
2016-Feb-08 00:32N 44°25' E 008°55'0 0.0
2016-Feb-07 23:31N 44°25' E 008°55'0 0.0
2016-Feb-07 22:31N 44°25' E 008°55'0 0.0
2016-Feb-07 21:33N 44°25' E 008°55'0 0.0
2016-Feb-07 20:30N 44°25' E 008°55'0 0.0
2016-Feb-07 19:29N 44°25' E 008°55'0 0.0
2016-Feb-07 18:29N 44°25' E 008°55'3 2.9
2016-Feb-07 17:33N 44°23' E 008°57'1716.6
2016-Feb-07 16:34N 44°08' E 009°09'2323.1
2016-Feb-07 15:34N 43°48' E 009°25'2323.2
2016-Feb-07 14:34N 43°28' E 009°41'33323.8
2016-Feb-07 00:33N 38°34' E 013°07'2424.7
2016-Feb-06 23:34N 38°13' E 013°24'5 5.3
2016-Feb-06 22:32N 38°08' E 013°22'0 0.0
2016-Feb-06 21:32N 38°08' E 013°22'0 0.0
2016-Feb-06 20:31N 38°08' E 013°22'0 0.0
2016-Feb-06 19:31N 38°08' E 013°22'0 0.0
2016-Feb-06 18:33N 38°08' E 013°22'0 0.0
2016-Feb-06 17:33N 38°08' E 013°22'1010.1
2016-Feb-06 16:33N 38°18' E 013°21'2522.8
2016-Feb-06 15:29N 38°39' E 013°04'31722.7
2016-Feb-06 01:30N 43°12' E 009°32'2122.8
2016-Feb-06 00:34N 43°32' E 009°22'2322.9
2016-Feb-05 23:34N 43°54' E 009°11'2322.8
2016-Feb-05 22:34N 44°16' E 009°01'10 9.3
2016-Feb-05 21:28N 44°25' E 008°55'0 0.0
2016-Feb-05 20:28N 44°25' E 008°55'0 0.0
2016-Feb-05 19:24N 44°25' E 008°55'0 0.0
2016-Feb-05 18:24N 44°25' E 008°55'0 0.1
2016-Feb-05 17:33N 44°25' E 008°55'1717.4
2016-Feb-05 16:33N 44°10' E 009°08'2423.7
2016-Feb-05 15:34N 43°49' E 009°24'2323.4
2016-Feb-05 14:33N 43°29' E 009°40'32822.7
2016-Feb-05 00:06N 38°39' E 013°03'1221.4
2016-Feb-04 23:33N 38°29' E 013°11'2121.2
2016-Feb-04 22:33N 38°11' E 013°25'4 4.0
2016-Feb-04 21:33N 38°08' E 013°22'0 0.0
2016-Feb-04 20:33N 38°08' E 013°22'0 0.0
2016-Feb-04 19:32N 38°08' E 013°22'0 0.0
2016-Feb-04 18:32N 38°08' E 013°22'0 0.0
2016-Feb-04 17:31N 38°08' E 013°22'9 9.7
2016-Feb-04 16:34N 38°17' E 013°21'34122.7
2016-Feb-04 01:33N 43°11' E 009°33'2322.9
2016-Feb-04 00:34N 43°32' E 009°22'2323.0
2016-Feb-03 23:34N 43°54' E 009°11'2323.0
2016-Feb-03 22:34N 44°15' E 009°00'10 9.8
2016-Feb-03 21:33N 44°25' E 008°55'0 0.0
2016-Feb-03 20:34N 44°25' E 008°55'0 0.0
2016-Feb-03 19:34N 44°25' E 008°55'0 0.0
2016-Feb-03 18:34N 44°25' E 008°55'  

Dump ship's entire track history